Time;durP1;ratioP1;P1;durP2;ratioP2;P2;SDS_P1;SDS_P2;PMS_P1;PMS_P2;Temp;Humidity;BMP_temperature;BMP_pressure;BME280_temperature;BME280_humidity;BME280_pressure;Samples;Min_cycle;Max_cycle;Signal;HPM_P1;HPM_P2
2022/04/10 00:02:18;;;;;;;6.82;3.38;;;2.80;99.90;;;;;;5013036;28;20026;-81
2022/04/10 00:04:44;;;;;;;9.40;3.03;;;2.90;99.90;;;;;;5020359;28;20022;-80
2022/04/10 00:07:11;;;;;;;6.00;2.92;;;2.90;99.90;;;;;;5001507;28;20041;-80
2022/04/10 00:09:36;;;;;;;3.85;1.58;;;2.80;99.90;;;;;;4999384;28;20556;-80
2022/04/10 00:12:03;;;;;;;3.95;2.10;;;2.80;99.90;;;;;;5020713;28;20042;-80
2022/04/10 00:14:28;;;;;;;12.93;3.17;;;2.70;99.90;;;;;;5015402;28;20028;-81
2022/04/10 00:16:56;;;;;;;7.32;2.67;;;2.70;99.90;;;;;;4998159;28;20093;-81
2022/04/10 00:19:22;;;;;;;9.75;2.88;;;2.70;99.90;;;;;;5018011;28;20034;-81
2022/04/10 00:21:48;;;;;;;5.13;2.20;;;2.70;99.90;;;;;;5001644;28;20301;-80
2022/04/10 00:24:14;;;;;;;4.78;1.17;;;2.60;99.90;;;;;;4998306;28;20040;-80
2022/04/10 00:26:39;;;;;;;3.72;1.50;;;2.60;99.90;;;;;;5020507;28;20010;-80
2022/04/10 00:29:05;;;;;;;5.03;1.80;;;2.50;99.90;;;;;;5002201;28;20049;-80
2022/04/10 00:31:30;;;;;;;7.88;2.70;;;2.60;99.90;;;;;;5029381;28;20049;-81
2022/04/10 00:33:56;;;;;;;7.32;2.03;;;2.50;99.90;;;;;;4998677;28;20426;-80
2022/04/10 00:36:21;;;;;;;3.40;2.75;;;2.70;99.90;;;;;;5003135;28;20037;-80
2022/04/10 00:38:47;;;;;;;10.20;3.28;;;2.50;99.90;;;;;;4997674;28;20506;-80
2022/04/10 00:41:12;;;;;;;5.28;1.23;;;2.50;99.90;;;;;;4996500;28;20034;-80
2022/04/10 00:43:39;;;;;;;6.82;3.40;;;2.60;99.90;;;;;;4999003;28;20084;-80
2022/04/10 00:46:05;;;;;;;7.65;3.45;;;2.60;99.90;;;;;;4996876;28;20048;-81
2022/04/10 00:48:31;;;;;;;5.55;2.13;;;2.50;99.90;;;;;;4998244;28;20560;-80
2022/04/10 00:53:41;;;;;;;2.17;1.55;;;2.40;99.90;;;;;;5020161;28;20044;-80
2022/04/10 00:56:07;;;;;;;11.43;3.17;;;2.50;99.90;;;;;;5002161;28;20117;-80
2022/04/10 00:58:32;;;;;;;6.50;2.20;;;2.50;99.90;;;;;;5015301;28;20025;-80
2022/04/10 01:00:58;;;;;;;7.13;3.38;;;2.40;99.90;;;;;;4974595;28;20037;-81
2022/04/10 01:03:23;;;;;;;10.05;1.88;;;2.40;99.90;;;;;;4999167;28;20033;-80
2022/04/10 01:05:49;;;;;;;4.00;1.63;;;2.40;99.90;;;;;;5012809;28;20041;-80
2022/04/10 01:08:15;;;;;;;7.35;3.22;;;2.40;99.90;;;;;;5002822;28;20033;-80
2022/04/10 01:10:41;;;;;;;5.20;1.55;;;2.40;99.90;;;;;;5001391;28;20059;-80
2022/04/10 01:13:07;;;;;;;6.60;2.75;;;2.30;99.90;;;;;;4997684;28;20018;-80
2022/04/10 01:15:33;;;;;;;4.03;2.20;;;2.30;99.90;;;;;;5013289;28;20041;-80
2022/04/10 01:17:58;;;;;;;6.93;3.30;;;2.20;99.90;;;;;;5016837;28;20053;-80
2022/04/10 01:20:24;;;;;;;7.95;3.35;;;2.20;99.90;;;;;;4999771;28;20093;-80
2022/04/10 01:22:50;;;;;;;6.53;2.10;;;2.20;99.90;;;;;;4999369;28;20037;-80
2022/04/10 01:25:15;;;;;;;7.38;3.20;;;2.30;99.90;;;;;;5011579;28;20391;-80
2022/04/10 01:27:41;;;;;;;2.00;1.48;;;2.30;99.90;;;;;;5010831;28;20038;-80
2022/04/10 01:30:08;;;;;;;9.85;3.30;;;2.30;99.90;;;;;;5001856;28;20105;-81
2022/04/10 01:32:33;;;;;;;2.88;1.77;;;2.20;99.90;;;;;;4997727;28;20078;-80
2022/04/10 01:35:00;;;;;;;4.88;2.40;;;2.20;99.90;;;;;;4976143;28;20030;-80
2022/04/10 01:37:26;;;;;;;2.30;1.83;;;2.10;99.90;;;;;;5010669;28;20026;-80
2022/04/10 01:39:52;;;;;;;4.20;2.03;;;2.20;99.90;;;;;;5002204;28;20032;-80
2022/04/10 01:42:18;;;;;;;5.05;2.17;;;2.20;99.90;;;;;;5008960;28;20069;-81
2022/04/10 01:44:43;;;;;;;5.10;2.83;;;2.20;99.90;;;;;;5017602;28;20026;-80
2022/04/10 01:47:09;;;;;;;14.95;4.47;;;2.20;99.90;;;;;;5014884;28;20041;-80
2022/04/10 01:49:35;;;;;;;9.35;2.88;;;2.10;99.90;;;;;;4998502;28;20029;-80
2022/04/10 01:52:00;;;;;;;6.35;3.65;;;2.10;99.90;;;;;;5000162;28;20026;-80
2022/04/10 01:54:26;;;;;;;7.95;2.95;;;2.10;99.90;;;;;;4995029;28;20022;-80
2022/04/10 01:56:51;;;;;;;10.68;4.68;;;2.20;99.90;;;;;;4996693;28;20038;-80
2022/04/10 01:59:17;;;;;;;11.85;3.30;;;2.10;99.90;;;;;;5001212;28;20026;-81
2022/04/10 02:01:43;;;;;;;6.97;2.53;;;2.10;99.90;;;;;;5003042;28;20767;-81
2022/04/10 02:04:08;;;;;;;7.97;3.13;;;1.90;99.90;;;;;;5016642;28;20030;-80
2022/04/10 02:06:34;;;;;;;5.45;3.20;;;2.00;99.90;;;;;;4996550;28;20040;-80
2022/04/10 02:09:00;;;;;;;12.93;4.30;;;2.00;99.90;;;;;;5020049;28;20056;-80
2022/04/10 02:11:25;;;;;;;5.63;2.20;;;2.10;99.90;;;;;;4997761;28;20371;-80
2022/04/10 02:13:51;;;;;;;7.90;3.17;;;2.00;99.90;;;;;;4998976;28;20029;-80
2022/04/10 02:16:17;;;;;;;9.45;2.95;;;1.90;99.90;;;;;;5012213;28;20048;-80
2022/04/10 02:18:43;;;;;;;6.28;2.05;;;1.90;99.90;;;;;;4997165;28;20034;-80
2022/04/10 02:21:09;;;;;;;14.10;3.97;;;1.90;99.90;;;;;;5016488;28;20040;-80
2022/04/10 02:23:35;;;;;;;4.57;1.88;;;1.90;99.90;;;;;;4993895;28;20060;-80
2022/04/10 02:26:01;;;;;;;6.82;3.90;;;1.90;99.90;;;;;;5014543;28;20493;-80
2022/04/10 02:28:27;;;;;;;6.97;3.58;;;1.80;99.90;;;;;;4994837;28;20064;-80
2022/04/10 02:30:52;;;;;;;14.27;4.45;;;1.90;99.90;;;;;;4995219;28;20037;-80
2022/04/10 02:33:18;;;;;;;4.07;2.10;;;1.80;99.90;;;;;;5012745;28;20064;-80
2022/04/10 02:35:43;;;;;;;9.65;3.45;;;1.80;99.90;;;;;;5009120;28;20049;-80
2022/04/10 02:38:09;;;;;;;5.30;2.35;;;1.80;99.90;;;;;;4994531;28;20037;-80
2022/04/10 02:40:35;;;;;;;7.80;2.97;;;1.80;99.90;;;;;;5011949;28;20431;-79
2022/04/10 02:43:00;;;;;;;11.15;3.95;;;1.70;99.90;;;;;;5011174;28;20029;-80
2022/04/10 02:45:26;;;;;;;7.30;3.17;;;1.70;99.90;;;;;;5015868;28;20041;-80
2022/04/10 02:47:51;;;;;;;10.32;3.88;;;1.70;99.90;;;;;;4998283;28;20042;-79
2022/04/10 02:50:18;;;;;;;4.78;2.92;;;1.80;99.90;;;;;;4998713;28;20108;-79
2022/04/10 02:52:43;;;;;;;7.65;3.45;;;1.70;99.90;;;;;;5010529;28;20025;-80
2022/04/10 02:55:09;;;;;;;8.65;4.00;;;1.70;99.90;;;;;;5016351;28;20040;-80
2022/04/10 02:57:36;;;;;;;7.38;3.72;;;1.60;99.90;;;;;;5005060;28;20032;-80
2022/04/10 03:00:03;;;;;;;9.48;3.72;;;1.60;99.90;;;;;;4989019;28;20701;-80
2022/04/10 03:02:29;;;;;;;5.47;3.13;;;1.70;99.90;;;;;;4995565;28;20030;-80
2022/04/10 03:04:54;;;;;;;5.05;2.85;;;1.70;99.90;;;;;;5001268;28;20038;-80
2022/04/10 03:07:20;;;;;;;11.05;3.38;;;1.80;99.90;;;;;;5011079;28;20034;-81
2022/04/10 03:09:45;;;;;;;10.00;3.92;;;1.80;99.90;;;;;;5013055;28;20094;-80
2022/04/10 03:12:11;;;;;;;5.28;2.67;;;1.70;99.90;;;;;;5000350;28;20029;-80
2022/04/10 03:14:36;;;;;;;5.95;3.13;;;1.60;99.90;;;;;;5007577;28;20121;-80
2022/04/10 03:17:02;;;;;;;6.82;2.05;;;1.50;99.90;;;;;;5014462;28;20021;-80
2022/04/10 03:19:28;;;;;;;7.93;3.40;;;1.60;99.90;;;;;;4999626;28;20019;-80
2022/04/10 03:21:54;;;;;;;11.07;4.05;;;1.60;99.90;;;;;;4997103;28;20045;-79
2022/04/10 03:24:20;;;;;;;8.30;3.80;;;1.50;99.90;;;;;;4995480;28;20029;-79
2022/04/10 03:26:45;;;;;;;10.65;3.85;;;1.50;99.90;;;;;;5000961;28;20034;-79
2022/04/10 03:29:12;;;;;;;8.18;3.80;;;1.50;99.90;;;;;;4994104;28;20068;-79
2022/04/10 03:31:38;;;;;;;11.95;4.10;;;1.50;99.90;;;;;;4994327;28;20045;-79
2022/04/10 03:34:03;;;;;;;7.85;3.05;;;1.50;99.90;;;;;;5002525;28;20029;-80
2022/04/10 03:36:29;;;;;;;5.90;2.33;;;1.60;99.90;;;;;;4997471;28;20032;-79
2022/04/10 03:38:54;;;;;;;9.98;3.58;;;1.50;99.90;;;;;;5016449;28;20030;-80
2022/04/10 03:41:20;;;;;;;6.35;2.33;;;1.40;99.90;;;;;;5009353;28;20052;-80
2022/04/10 03:43:45;;;;;;;12.48;4.10;;;1.40;99.90;;;;;;5010880;28;20556;-80
2022/04/10 03:46:11;;;;;;;8.77;4.30;;;1.30;99.90;;;;;;5013402;28;20037;-80
2022/04/10 03:48:36;;;;;;;7.72;2.80;;;1.40;99.90;;;;;;5013004;28;20179;-80
2022/04/10 03:51:02;;;;;;;8.80;3.85;;;1.50;99.90;;;;;;5006834;28;20379;-80
2022/04/10 03:53:27;;;;;;;5.75;2.75;;;1.60;99.90;;;;;;4997968;28;20037;-80
2022/04/10 03:55:53;;;;;;;2.35;1.75;;;1.50;99.90;;;;;;5026217;28;20472;-80
2022/04/10 03:58:18;;;;;;;6.25;3.33;;;1.40;99.90;;;;;;5026655;28;20033;-80
2022/04/10 04:00:45;;;;;;;9.52;3.53;;;1.50;99.90;;;;;;4997645;28;20037;-80
2022/04/10 04:03:10;;;;;;;9.98;4.45;;;1.50;99.90;;;;;;4998731;28;20243;-80
2022/04/10 04:05:36;;;;;;;10.65;5.15;;;1.40;99.90;;;;;;4996515;28;20014;-80
2022/04/10 04:08:01;;;;;;;8.50;3.67;;;1.40;99.90;;;;;;5015890;28;20025;-80
2022/04/10 04:10:27;;;;;;;5.75;3.80;;;1.50;99.90;;;;;;4999162;28;20052;-80
2022/04/10 04:12:52;;;;;;;11.10;4.57;;;1.40;99.90;;;;;;4992638;28;20025;-80
2022/04/10 04:15:18;;;;;;;9.15;4.30;;;1.50;99.90;;;;;;4992522;28;20034;-81
2022/04/10 04:17:44;;;;;;;5.45;2.90;;;1.30;99.90;;;;;;5012669;28;20279;-80
2022/04/10 04:20:09;;;;;;;8.50;3.50;;;1.40;99.90;;;;;;5015302;28;20013;-80
2022/04/10 04:22:35;;;;;;;7.10;3.22;;;1.50;99.90;;;;;;4997800;28;20030;-80
2022/04/10 04:25:01;;;;;;;6.75;2.85;;;1.50;99.90;;;;;;5007469;28;20048;-80
2022/04/10 04:27:27;;;;;;;12.18;5.25;;;1.50;99.90;;;;;;5001473;28;20501;-80
2022/04/10 04:29:52;;;;;;;9.48;3.75;;;1.40;99.90;;;;;;5016234;28;20165;-80
2022/04/10 04:32:18;;;;;;;12.80;4.85;;;1.30;99.90;;;;;;5016853;28;20049;-80
2022/04/10 04:34:43;;;;;;;10.27;5.20;;;1.40;99.90;;;;;;5015621;28;20025;-80
2022/04/10 04:37:09;;;;;;;7.40;4.05;;;1.40;99.90;;;;;;5016817;28;20030;-80
2022/04/10 04:39:35;;;;;;;8.25;2.28;;;1.30;99.90;;;;;;5002062;28;20442;-80
2022/04/10 04:42:00;;;;;;;8.18;4.22;;;1.30;99.90;;;;;;5000638;28;20033;-80
2022/04/10 04:44:26;;;;;;;10.73;5.60;;;1.30;99.90;;;;;;5017793;28;20032;-80
2022/04/10 04:46:51;;;;;;;8.38;3.92;;;1.30;99.90;;;;;;5002374;28;20037;-80
2022/04/10 04:49:17;;;;;;;9.07;5.20;;;1.40;99.90;;;;;;4997141;28;25150;-80
2022/04/10 04:51:43;;;;;;;5.45;2.95;;;1.20;99.90;;;;;;5000298;28;20511;-80
2022/04/10 04:54:08;;;;;;;11.90;5.55;;;1.20;99.90;;;;;;5006003;28;20121;-80
2022/04/10 04:56:34;;;;;;;15.15;5.55;;;1.40;99.90;;;;;;4996902;28;20092;-80
2022/04/10 04:58:59;;;;;;;10.45;4.63;;;1.40;99.90;;;;;;4998856;28;20046;-80
2022/04/10 05:01:25;;;;;;;12.20;4.53;;;1.30;99.90;;;;;;5001900;28;20494;-80
2022/04/10 05:03:50;;;;;;;7.15;4.70;;;1.30;99.90;;;;;;5027057;28;20520;-80
2022/04/10 05:06:16;;;;;;;9.18;4.85;;;1.30;99.90;;;;;;5015194;28;20032;-80
2022/04/10 05:08:41;;;;;;;20.00;6.55;;;1.20;99.90;;;;;;5013273;28;20025;-80
2022/04/10 05:11:11;;;;;;;9.75;5.80;;;1.00;99.90;;;;;;5016697;28;20033;-80
2022/04/10 05:13:36;;;;;;;12.18;5.28;;;1.00;99.90;;;;;;4999615;28;20029;-80
2022/04/10 05:16:02;;;;;;;12.48;6.95;;;1.10;99.90;;;;;;5000247;28;20413;-80
2022/04/10 05:18:28;;;;;;;8.43;4.10;;;1.00;99.90;;;;;;5005382;28;20034;-80
2022/04/10 05:20:53;;;;;;;12.52;5.60;;;1.10;99.90;;;;;;4984414;28;20037;-81
2022/04/10 05:23:19;;;;;;;14.55;6.57;;;1.20;99.90;;;;;;5004057;28;20044;-80
2022/04/10 05:25:45;;;;;;;8.70;4.40;;;1.10;99.90;;;;;;5018646;28;20532;-81
2022/04/10 05:28:11;;;;;;;6.15;3.20;;;1.30;99.90;;;;;;4990466;28;20142;-80
2022/04/10 05:30:36;;;;;;;15.13;6.13;;;1.40;99.90;;;;;;5012032;28;20496;-80
2022/04/10 05:33:02;;;;;;;9.70;4.40;;;1.40;99.90;;;;;;4997119;28;20030;-80
2022/04/10 05:35:28;;;;;;;11.57;3.78;;;1.40;99.90;;;;;;5014830;28;20587;-80
2022/04/10 05:37:53;;;;;;;15.85;6.22;;;1.50;99.90;;;;;;4996624;28;20036;-80
2022/04/10 05:40:19;;;;;;;12.77;6.72;;;1.40;99.90;;;;;;5007447;28;20034;-80
2022/04/10 05:42:45;;;;;;;14.32;4.95;;;1.40;99.90;;;;;;4990534;28;20022;-80
2022/04/10 05:45:10;;;;;;;13.65;6.55;;;1.50;99.90;;;;;;5017420;28;20038;-80
2022/04/10 05:47:38;;;;;;;9.93;5.80;;;1.70;99.90;;;;;;4998195;28;20061;-81
2022/04/10 05:50:04;;;;;;;20.13;7.13;;;1.70;99.90;;;;;;4995147;28;20034;-81
2022/04/10 05:52:29;;;;;;;15.45;7.47;;;1.80;99.90;;;;;;4995978;28;20025;-81
2022/04/10 05:54:59;;;;;;;11.85;5.00;;;1.80;99.90;;;;;;4994726;28;20916;-81
2022/04/10 05:57:24;;;;;;;23.00;7.07;;;1.90;99.90;;;;;;5007957;28;20041;-81
2022/04/10 05:59:50;;;;;;;11.50;5.20;;;2.00;99.90;;;;;;4995972;28;20034;-81
2022/04/10 06:02:15;;;;;;;18.90;6.45;;;2.10;99.90;;;;;;5003643;28;20025;-81
2022/04/10 06:04:41;;;;;;;9.25;5.82;;;2.10;99.90;;;;;;4985948;28;20042;-81
2022/04/10 06:07:06;;;;;;;16.92;6.40;;;2.10;99.90;;;;;;5003270;28;20068;-81
2022/04/10 06:09:32;;;;;;;16.88;6.88;;;2.20;99.90;;;;;;4983373;28;20054;-81
2022/04/10 06:11:57;;;;;;;9.43;4.68;;;2.20;99.90;;;;;;4997549;28;20100;-81
2022/04/10 06:14:23;;;;;;;12.48;5.22;;;2.30;99.90;;;;;;4989904;28;20044;-81
2022/04/10 06:16:48;;;;;;;10.30;4.88;;;2.30;99.90;;;;;;5000953;28;20512;-81
2022/04/10 06:19:21;;;;;;;14.45;5.65;;;2.50;99.90;;;;;;4989374;28;20026;-81
2022/04/10 06:21:46;;;;;;;10.25;5.40;;;2.60;99.90;;;;;;4987563;28;20034;-81
2022/04/10 06:24:12;;;;;;;11.73;6.07;;;2.60;99.90;;;;;;4986048;28;20037;-81
2022/04/10 06:26:37;;;;;;;13.52;6.93;;;2.60;99.90;;;;;;4990345;28;20130;-81
2022/04/10 06:29:03;;;;;;;7.55;3.65;;;2.70;99.90;;;;;;5005447;28;20083;-81
2022/04/10 06:31:28;;;;;;;12.65;5.40;;;2.80;99.90;;;;;;4989067;28;20038;-81
2022/04/10 06:33:56;;;;;;;13.85;7.07;;;2.80;99.90;;;;;;4998724;28;20036;-81
2022/04/10 06:36:22;;;;;;;15.52;6.78;;;3.00;99.90;;;;;;4985566;28;20033;-81
2022/04/10 06:38:49;;;;;;;7.85;3.53;;;3.00;99.90;;;;;;4995070;28;20479;-81
2022/04/10 06:41:14;;;;;;;9.07;2.92;;;3.10;99.90;;;;;;5002598;28;20109;-81
2022/04/10 06:43:40;;;;;;;7.57;3.83;;;3.20;99.90;;;;;;4983024;28;20050;-81
2022/04/10 06:46:06;;;;;;;7.35;3.90;;;3.30;99.90;;;;;;4988242;28;20104;-81
2022/04/10 06:48:32;;;;;;;16.52;6.53;;;3.50;99.90;;;;;;4983477;28;20033;-81
2022/04/10 06:50:57;;;;;;;14.80;5.97;;;3.50;99.90;;;;;;5013835;28;20041;-81
2022/04/10 06:53:23;;;;;;;17.33;6.65;;;3.60;99.90;;;;;;4985171;28;20038;-81
2022/04/10 06:55:48;;;;;;;9.20;3.58;;;3.70;99.90;;;;;;4987056;28;20065;-81
2022/04/10 06:58:17;;;;;;;9.10;3.78;;;3.70;99.90;;;;;;4987182;28;20034;-81
2022/04/10 07:00:42;;;;;;;9.73;3.05;;;3.80;99.90;;;;;;5002739;28;20041;-81
2022/04/10 07:03:08;;;;;;;7.65;3.78;;;3.90;99.90;;;;;;4983544;28;20034;-81
2022/04/10 07:05:33;;;;;;;7.90;4.05;;;4.00;99.90;;;;;;4999420;28;20038;-81
2022/04/10 07:07:59;;;;;;;10.45;5.15;;;4.20;99.90;;;;;;4982795;28;20051;-82
2022/04/10 07:10:25;;;;;;;8.93;3.53;;;4.30;99.90;;;;;;4986102;28;20087;-81
2022/04/10 07:12:50;;;;;;;11.57;6.00;;;4.30;99.90;;;;;;4984709;28;20042;-81
2022/04/10 07:15:18;;;;;;;7.93;3.35;;;4.50;99.90;;;;;;5000022;28;20076;-81
2022/04/10 07:17:43;;;;;;;15.48;5.78;;;4.70;99.90;;;;;;4981904;28;20369;-81
2022/04/10 07:20:09;;;;;;;10.25;5.13;;;4.70;99.90;;;;;;5004405;28;20021;-81
2022/04/10 07:25:19;;;;;;;17.50;6.13;;;5.00;99.90;;;;;;5002909;28;20076;-82
2022/04/10 07:27:45;;;;;;;12.15;5.53;;;5.20;99.90;;;;;;5004746;28;20568;-81
2022/04/10 07:30:11;;;;;;;10.55;4.78;;;5.40;99.90;;;;;;5000218;28;20517;-82
2022/04/10 07:32:37;;;;;;;11.10;5.07;;;5.60;99.90;;;;;;5001334;28;20068;-82
2022/04/10 07:35:05;;;;;;;12.30;5.05;;;5.70;99.90;;;;;;4992509;28;20395;-82
2022/04/10 07:37:31;;;;;;;7.13;2.22;;;5.70;99.90;;;;;;4982968;28;20082;-82
2022/04/10 07:39:57;;;;;;;9.65;4.63;;;5.90;99.90;;;;;;5005569;28;20026;-81
2022/04/10 07:42:22;;;;;;;10.40;4.45;;;6.10;99.90;;;;;;5007081;28;20034;-82
2022/04/10 07:44:48;;;;;;;12.05;4.85;;;6.10;99.90;;;;;;4989807;28;20057;-81
2022/04/10 07:47:25;;;;;;;7.30;3.35;;;6.20;99.90;;;;;;4987513;28;20167;-81
2022/04/10 07:49:51;;;;;;;7.50;4.72;;;6.20;99.90;;;;;;4989064;28;20040;-80
2022/04/10 07:52:17;;;;;;;11.23;4.40;;;6.30;99.90;;;;;;4993326;28;20112;-81
2022/04/10 07:54:43;;;;;;;11.07;4.20;;;6.40;99.90;;;;;;5006022;28;20037;-81
2022/04/10 07:57:08;;;;;;;11.43;5.05;;;6.50;99.90;;;;;;5004784;28;20552;-81
2022/04/10 07:59:34;;;;;;;8.35;4.03;;;6.50;99.90;;;;;;5007850;28;20029;-81
2022/04/10 08:01:59;;;;;;;6.38;3.13;;;6.60;99.90;;;;;;5001025;28;20501;-81
2022/04/10 08:04:25;;;;;;;11.80;4.72;;;6.70;99.90;;;;;;4991251;28;20092;-81
2022/04/10 08:06:51;;;;;;;9.40;3.22;;;6.70;99.90;;;;;;4972971;28;20092;-81
2022/04/10 08:09:17;;;;;;;10.88;4.47;;;7.00;99.90;;;;;;4988198;28;20453;-81
2022/04/10 08:11:42;;;;;;;8.25;4.65;;;7.10;99.90;;;;;;4982998;28;20068;-81
2022/04/10 08:14:08;;;;;;;12.20;4.50;;;7.10;99.90;;;;;;4980877;28;20410;-81
2022/04/10 08:16:33;;;;;;;8.23;3.97;;;7.10;99.90;;;;;;5000860;28;20038;-81
2022/04/10 08:18:59;;;;;;;10.75;4.60;;;7.20;99.90;;;;;;5000897;28;20477;-81
2022/04/10 08:21:24;;;;;;;9.13;2.53;;;7.40;99.90;;;;;;4997423;28;20041;-81
2022/04/10 08:23:50;;;;;;;9.57;4.05;;;7.60;99.90;;;;;;4998683;28;20030;-81
2022/04/10 08:26:15;;;;;;;7.10;3.03;;;7.90;99.90;;;;;;4983180;28;20096;-82
2022/04/10 08:28:41;;;;;;;8.40;2.90;;;8.00;99.90;;;;;;5006919;28;20106;-81
2022/04/10 08:31:07;;;;;;;11.65;4.28;;;8.00;99.90;;;;;;4994545;28;20402;-82
2022/04/10 08:33:32;;;;;;;12.77;4.57;;;8.40;99.90;;;;;;4994947;28;20095;-82
2022/04/10 08:35:58;;;;;;;3.53;1.98;;;8.40;99.90;;;;;;4986921;28;20390;-82
2022/04/10 08:38:23;;;;;;;8.68;2.78;;;8.50;99.90;;;;;;4984790;28;20038;-82
2022/04/10 08:40:49;;;;;;;5.53;2.67;;;8.70;99.90;;;;;;4988288;28;20049;-82
2022/04/10 08:43:15;;;;;;;7.60;2.40;;;8.90;99.90;;;;;;4987688;28;20033;-82
2022/04/10 08:45:41;;;;;;;15.00;4.65;;;8.80;99.90;;;;;;5000380;28;20129;-82
2022/04/10 08:48:07;;;;;;;8.93;2.28;;;8.80;99.90;;;;;;4989616;28;20130;-82
2022/04/10 08:50:32;;;;;;;11.65;2.97;;;8.90;99.90;;;;;;5000382;28;20034;-82
2022/04/10 08:52:58;;;;;;;4.53;2.38;;;9.10;99.90;;;;;;4987777;28;20627;-82
2022/04/10 08:55:24;;;;;;;6.28;2.92;;;9.20;99.90;;;;;;4990576;28;20382;-82
2022/04/10 08:57:50;;;;;;;8.90;3.00;;;9.30;99.90;;;;;;4981858;28;20057;-82
2022/04/10 09:00:17;;;;;;;5.00;2.08;;;9.40;99.90;;;;;;4990659;28;20022;-82
2022/04/10 09:02:50;;;;;;;8.45;3.17;;;9.50;99.90;;;;;;5004001;28;20034;-83
2022/04/10 09:05:20;;;;;;;8.40;3.13;;;9.60;99.90;;;;;;4986374;28;20493;-83
2022/04/10 09:08:05;;;;;;;4.68;2.80;;;9.60;99.90;;;;;;4995099;28;20041;-82
2022/04/10 09:10:31;;;;;;;6.20;3.42;;;9.70;99.90;;;;;;5015753;28;20323;-83
2022/04/10 09:12:56;;;;;;;13.35;3.08;;;9.80;99.90;;;;;;4959331;28;20034;-83
2022/04/10 09:15:31;;;;;;;6.43;2.17;;;9.90;99.90;;;;;;4986923;28;20080;-82
2022/04/10 09:17:56;;;;;;;4.82;2.05;;;10.00;99.90;;;;;;4983976;28;20088;-83
2022/04/10 09:20:22;;;;;;;7.88;2.47;;;10.00;99.90;;;;;;4984384;28;20029;-83
2022/04/10 09:22:47;;;;;;;9.23;2.50;;;10.10;99.90;;;;;;4962613;28;20030;-82
2022/04/10 09:25:16;;;;;;;9.95;2.58;;;10.10;99.90;;;;;;5004990;28;20080;-83
2022/04/10 09:27:45;;;;;;;11.63;3.05;;;10.10;99.90;;;;;;4981835;28;20037;-83
2022/04/10 09:30:15;;;;;;;10.38;2.53;;;10.00;99.90;;;;;;5019715;28;20048;-83
2022/04/10 09:32:48;;;;;;;8.82;2.55;;;10.00;99.90;;;;;;4983875;28;20022;-83
2022/04/10 09:35:16;;;;;;;8.55;3.05;;;9.90;99.90;;;;;;4993074;28;20074;-83
2022/04/10 09:37:56;;;;;;;9.52;2.72;;;9.80;99.90;;;;;;4988402;28;20522;-83
2022/04/10 09:40:31;;;;;;;6.55;2.38;;;9.70;99.90;;;;;;4979643;28;20323;-83
2022/04/10 09:43:07;;;;;;;8.77;3.07;;;9.70;99.90;;;;;;4999122;28;20060;-83
2022/04/10 09:45:43;;;;;;;5.38;2.85;;;9.70;99.90;;;;;;4981095;28;20283;-83
2022/04/10 09:48:22;;;;;;;7.57;2.50;;;9.90;99.90;;;;;;4983874;28;20094;-83
2022/04/10 09:50:52;;;;;;;9.63;3.42;;;9.90;99.90;;;;;;5008938;28;20045;-84
2022/04/10 09:53:19;;;;;;;9.75;4.15;;;10.10;99.90;;;;;;4990363;28;20034;-84
2022/04/10 09:55:45;;;;;;;9.40;2.60;;;10.10;99.90;;;;;;4962542;28;20021;-83
2022/04/10 09:58:11;;;;;;;6.10;2.20;;;10.00;99.90;;;;;;4969434;28;20363;-84
2022/04/10 10:00:40;;;;;;;9.10;2.10;;;9.90;99.90;;;;;;4973098;28;20124;-84
2022/04/10 10:03:10;;;;;;;7.47;2.03;;;10.10;99.90;;;;;;4985635;28;20026;-84
2022/04/10 10:05:53;;;;;;;8.95;2.30;;;10.10;99.90;;;;;;4961586;28;20093;-83
2022/04/10 10:08:28;;;;;;;7.20;1.77;;;10.40;99.90;;;;;;4977169;28;20031;-84
2022/04/10 10:10:53;;;;;;;4.37;1.90;;;10.60;99.90;;;;;;4972488;28;20481;-84
2022/04/10 10:13:25;;;;;;;7.38;1.50;;;10.70;99.90;;;;;;4988111;28;20038;-84
2022/04/10 10:15:51;;;;;;;7.72;1.85;;;10.70;99.90;;;;;;4972338;28;20046;-84
2022/04/10 10:18:17;;;;;;;3.35;1.63;;;10.80;99.90;;;;;;4996290;28;20040;-85
2022/04/10 10:20:45;;;;;;;9.63;2.35;;;10.70;99.90;;;;;;4976903;28;20124;-84
2022/04/10 10:23:12;;;;;;;5.20;1.85;;;10.80;99.90;;;;;;4981036;28;20084;-85
2022/04/10 10:25:46;;;;;;;5.05;1.52;;;11.00;99.90;;;;;;4981745;28;20485;-85
2022/04/10 10:28:55;;;;;;;7.60;1.60;;;11.00;99.90;;;;;;4994196;28;20061;-84
2022/04/10 10:31:44;;;;;;;5.03;1.33;;;11.10;99.90;;;;;;4986755;28;20121;-85
2022/04/10 10:34:09;;;;;;;3.22;0.90;;;11.20;99.90;;;;;;4975645;28;20553;-85
2022/04/10 10:36:35;;;;;;;1.50;0.90;;;11.20;99.90;;;;;;4975083;28;20120;-85
2022/04/10 10:39:03;;;;;;;2.65;1.10;;;11.20;99.90;;;;;;4967161;28;20050;-84
2022/04/10 10:41:30;;;;;;;3.95;1.05;;;11.20;99.90;;;;;;4967717;28;20449;-84
2022/04/10 10:43:59;;;;;;;1.88;1.10;;;11.30;99.90;;;;;;4982795;28;20433;-85
2022/04/10 10:46:32;;;;;;;2.50;1.02;;;11.30;99.90;;;;;;4958379;28;20032;-85
2022/04/10 10:49:27;;;;;;;3.58;0.82;;;11.20;99.90;;;;;;4970038;28;20293;-84
2022/04/10 10:51:56;;;;;;;3.42;1.00;;;11.40;99.90;;;;;;5002272;28;20449;-85
2022/04/10 10:54:34;;;;;;;3.33;0.90;;;11.30;99.90;;;;;;4958690;28;20029;-85
2022/04/10 10:57:21;;;;;;;3.13;0.82;;;11.50;99.90;;;;;;4938999;28;20039;-85
2022/04/10 11:00:08;;;;;;;2.50;1.00;;;11.50;99.90;;;;;;4988956;28;20040;-85
2022/04/10 11:02:35;;;;;;;3.13;1.00;;;11.70;99.90;;;;;;4991971;28;20038;-85
2022/04/10 11:05:07;;;;;;;3.78;1.08;;;11.60;99.90;;;;;;4990907;28;20505;-85
2022/04/10 11:07:39;;;;;;;2.63;0.70;;;11.60;99.90;;;;;;4977874;28;20368;-85
2022/04/10 11:10:11;;;;;;;1.30;0.73;;;11.70;99.90;;;;;;4982729;28;20413;-85
2022/04/10 11:15:48;;;;;;;4.32;0.85;;;12.10;99.90;;;;;;4978801;28;20037;-85
2022/04/10 11:18:43;;;;;;;2.50;0.75;;;12.30;99.90;;;;;;4982458;28;20022;-85
2022/04/10 11:21:19;;;;;;;1.67;0.60;;;12.40;99.90;;;;;;4983054;28;20042;-84
2022/04/10 11:23:45;;;;;;;1.35;0.80;;;12.50;99.90;;;;;;4962409;28;20822;-84
2022/04/10 11:26:20;;;;;;;1.05;0.60;;;12.50;99.90;;;;;;4979188;28;20034;-85
2022/04/10 11:28:53;;;;;;;1.73;0.60;;;12.70;99.90;;;;;;4986639;28;20035;-85
2022/04/10 11:31:40;;;;;;;2.78;0.73;;;13.30;99.90;;;;;;4984568;28;20452;-85
2022/04/10 11:34:28;;;;;;;1.70;0.70;;;13.00;99.90;;;;;;4977198;28;20034;-84
2022/04/10 11:36:58;;;;;;;1.73;1.00;;;12.90;99.90;;;;;;4977398;28;20410;-85
2022/04/10 11:39:34;;;;;;;1.75;0.70;;;12.90;99.90;;;;;;5000664;28;20030;-85
2022/04/10 11:42:04;;;;;;;2.70;0.82;;;13.40;99.90;;;;;;4993583;28;20037;-86
2022/04/10 11:44:30;;;;;;;2.50;0.75;;;13.60;99.90;;;;;;4984154;28;20033;-84
2022/04/10 11:46:55;;;;;;;1.35;0.60;;;13.60;99.90;;;;;;4996854;28;20037;-84
2022/04/10 11:49:21;;;;;;;3.45;0.90;;;14.00;99.90;;;;;;4979217;28;20118;-84
2022/04/10 11:51:50;;;;;;;6.03;0.80;;;13.90;99.90;;;;;;4981027;28;20099;-84
2022/04/10 11:54:29;;;;;;;1.05;0.65;;;14.10;99.90;;;;;;4982460;28;20057;-84
2022/04/10 11:56:54;;;;;;;4.63;1.30;;;14.10;99.90;;;;;;4997675;28;20412;-85
2022/04/10 11:59:21;;;;;;;4.38;0.77;;;13.90;99.90;;;;;;5001580;28;20445;-84
2022/04/10 12:01:48;;;;;;;3.28;0.75;;;13.70;99.90;;;;;;4978738;28;20030;-85
2022/04/10 12:04:15;;;;;;;2.60;0.65;;;14.10;99.90;;;;;;4980315;28;20034;-85
2022/04/10 12:06:41;;;;;;;4.00;0.88;;;13.90;99.90;;;;;;4984965;28;20474;-84
2022/04/10 12:09:07;;;;;;;2.33;0.70;;;14.00;99.90;;;;;;5000349;28;20121;-84
2022/04/10 12:11:39;;;;;;;1.88;0.70;;;14.10;99.90;;;;;;4976775;28;20096;-85
2022/04/10 12:14:21;;;;;;;3.30;1.10;;;14.20;99.90;;;;;;4995226;28;20034;-85
2022/04/10 12:16:47;;;;;;;3.00;0.95;;;14.40;93.40;;;;;;4993086;28;20053;-85
2022/04/10 12:19:12;;;;;;;2.33;0.73;;;14.30;95.40;;;;;;4969018;28;20333;-85
2022/04/10 12:21:46;;;;;;;3.30;0.80;;;14.30;98.90;;;;;;4977063;28;20029;-84
2022/04/10 12:24:12;;;;;;;2.40;0.95;;;14.60;95.50;;;;;;4971376;28;20033;-85
2022/04/10 12:26:40;;;;;;;2.95;0.80;;;14.60;97.60;;;;;;4978305;28;20033;-86
2022/04/10 12:29:06;;;;;;;3.38;1.23;;;14.70;94.40;;;;;;4971872;28;20041;-86
2022/04/10 12:31:34;;;;;;;3.85;1.02;;;14.50;84.80;;;;;;4975524;28;20038;-85
2022/04/10 12:34:00;;;;;;;1.85;0.80;;;14.50;90.70;;;;;;4992456;28;20497;-87
2022/04/10 12:36:25;;;;;;;1.83;0.82;;;14.80;94.60;;;;;;4978962;28;20034;-86
2022/04/10 12:38:54;;;;;;;2.95;0.75;;;15.10;92.10;;;;;;4976824;28;20041;-86
2022/04/10 12:41:30;;;;;;;2.78;0.80;;;15.10;95.00;;;;;;4976884;28;20113;-85
2022/04/10 12:44:02;;;;;;;3.88;1.00;;;15.00;95.40;;;;;;4991160;28;20091;-87
2022/04/10 12:46:37;;;;;;;2.75;1.00;;;15.40;93.70;;;;;;4970240;28;20033;-86
2022/04/10 12:49:10;;;;;;;2.60;0.88;;;15.30;91.70;;;;;;5011285;28;20493;-87
2022/04/10 12:51:35;;;;;;;4.28;0.80;;;15.10;94.40;;;;;;4985135;28;20097;-87
2022/04/10 12:54:01;;;;;;;2.42;1.30;;;14.90;94.70;;;;;;4962083;28;20137;-86
2022/04/10 12:56:26;;;;;;;4.28;1.40;;;14.70;89.50;;;;;;4982364;28;20030;-86
2022/04/10 12:58:53;;;;;;;3.08;0.75;;;14.70;92.00;;;;;;4980049;28;20037;-87
2022/04/10 13:01:31;;;;;;;2.97;0.60;;;14.40;85.00;;;;;;4986095;28;20034;-86
2022/04/10 13:04:03;;;;;;;2.08;0.60;;;14.40;92.80;;;;;;4973615;28;20040;-86